sensor_id;sensor_type;location;lat;lon;timestamp;temperature;humidity
22288;DHT22;11312;51.464;6.968;2023-12-14T00:00:08;9.10;99.90
22288;DHT22;11312;51.464;6.968;2023-12-14T00:02:34;9.00;99.90
22288;DHT22;11312;51.464;6.968;2023-12-14T00:05:00;8.90;99.90
22288;DHT22;11312;51.464;6.968;2023-12-14T00:07:25;8.80;99.90
22288;DHT22;11312;51.464;6.968;2023-12-14T00:09:51;8.80;99.90
22288;DHT22;11312;51.464;6.968;2023-12-14T00:12:16;8.90;99.90
22288;DHT22;11312;51.464;6.968;2023-12-14T00:14:42;8.90;99.90
22288;DHT22;11312;51.464;6.968;2023-12-14T00:17:08;8.80;99.90
22288;DHT22;11312;51.464;6.968;2023-12-14T00:19:33;8.90;99.90
22288;DHT22;11312;51.464;6.968;2023-12-14T00:21:59;8.90;99.90
22288;DHT22;11312;51.464;6.968;2023-12-14T00:24:24;8.80;99.90
22288;DHT22;11312;51.464;6.968;2023-12-14T00:26:50;8.90;99.90
22288;DHT22;11312;51.464;6.968;2023-12-14T00:29:16;8.80;99.90
22288;DHT22;11312;51.464;6.968;2023-12-14T00:31:41;8.90;99.90
22288;DHT22;11312;51.464;6.968;2023-12-14T00:34:07;8.80;99.90
22288;DHT22;11312;51.464;6.968;2023-12-14T00:36:32;8.90;99.90
22288;DHT22;11312;51.464;6.968;2023-12-14T00:38:58;8.80;99.90
22288;DHT22;11312;51.464;6.968;2023-12-14T00:41:24;8.80;99.90
22288;DHT22;11312;51.464;6.968;2023-12-14T00:43:49;8.80;99.90
22288;DHT22;11312;51.464;6.968;2023-12-14T00:46:15;8.80;99.90
22288;DHT22;11312;51.464;6.968;2023-12-14T00:48:40;8.90;99.90
22288;DHT22;11312;51.464;6.968;2023-12-14T00:51:06;8.90;99.90
22288;DHT22;11312;51.464;6.968;2023-12-14T00:53:32;8.80;99.90
22288;DHT22;11312;51.464;6.968;2023-12-14T00:55:57;8.60;99.90
22288;DHT22;11312;51.464;6.968;2023-12-14T00:58:23;8.70;99.90
22288;DHT22;11312;51.464;6.968;2023-12-14T01:00:48;8.70;99.90
22288;DHT22;11312;51.464;6.968;2023-12-14T01:03:14;8.70;99.90
22288;DHT22;11312;51.464;6.968;2023-12-14T01:05:40;8.70;99.90
22288;DHT22;11312;51.464;6.968;2023-12-14T01:08:05;8.60;99.90
22288;DHT22;11312;51.464;6.968;2023-12-14T01:10:31;8.70;99.90
22288;DHT22;11312;51.464;6.968;2023-12-14T01:12:58;8.50;99.90
22288;DHT22;11312;51.464;6.968;2023-12-14T01:15:23;8.50;99.90
22288;DHT22;11312;51.464;6.968;2023-12-14T01:17:49;8.50;99.90
22288;DHT22;11312;51.464;6.968;2023-12-14T01:20:14;8.60;99.90
22288;DHT22;11312;51.464;6.968;2023-12-14T01:22:40;8.50;99.90
22288;DHT22;11312;51.464;6.968;2023-12-14T01:25:06;8.50;99.90
22288;DHT22;11312;51.464;6.968;2023-12-14T01:27:31;8.40;99.90
22288;DHT22;11312;51.464;6.968;2023-12-14T01:29:57;8.40;99.90
22288;DHT22;11312;51.464;6.968;2023-12-14T01:32:23;8.40;99.90
22288;DHT22;11312;51.464;6.968;2023-12-14T01:34:48;8.40;99.90
22288;DHT22;11312;51.464;6.968;2023-12-14T01:37:14;8.40;99.90
22288;DHT22;11312;51.464;6.968;2023-12-14T01:39:39;8.40;99.90
22288;DHT22;11312;51.464;6.968;2023-12-14T01:42:05;8.40;99.90
22288;DHT22;11312;51.464;6.968;2023-12-14T01:44:31;8.40;99.90
22288;DHT22;11312;51.464;6.968;2023-12-14T01:46:56;8.40;99.90
22288;DHT22;11312;51.464;6.968;2023-12-14T01:49:22;8.40;99.90
22288;DHT22;11312;51.464;6.968;2023-12-14T01:51:47;8.40;99.90
22288;DHT22;11312;51.464;6.968;2023-12-14T01:54:13;8.30;99.90
22288;DHT22;11312;51.464;6.968;2023-12-14T01:56:38;8.40;99.90
22288;DHT22;11312;51.464;6.968;2023-12-14T01:59:05;8.40;99.90
22288;DHT22;11312;51.464;6.968;2023-12-14T02:01:44;8.40;99.90
22288;DHT22;11312;51.464;6.968;2023-12-14T02:04:11;8.40;99.90
22288;DHT22;11312;51.464;6.968;2023-12-14T02:06:37;8.40;99.90
22288;DHT22;11312;51.464;6.968;2023-12-14T02:09:03;8.30;99.90
22288;DHT22;11312;51.464;6.968;2023-12-14T02:11:29;8.30;99.90
22288;DHT22;11312;51.464;6.968;2023-12-14T02:13:55;8.20;99.90
22288;DHT22;11312;51.464;6.968;2023-12-14T02:16:20;8.10;99.90
22288;DHT22;11312;51.464;6.968;2023-12-14T02:18:46;8.20;99.90
22288;DHT22;11312;51.464;6.968;2023-12-14T02:21:12;8.10;99.90
22288;DHT22;11312;51.464;6.968;2023-12-14T02:23:44;8.00;99.90
22288;DHT22;11312;51.464;6.968;2023-12-14T02:26:11;8.20;99.90
22288;DHT22;11312;51.464;6.968;2023-12-14T02:28:36;8.20;99.90
22288;DHT22;11312;51.464;6.968;2023-12-14T02:31:02;8.20;99.90
22288;DHT22;11312;51.464;6.968;2023-12-14T02:33:28;8.20;99.90
22288;DHT22;11312;51.464;6.968;2023-12-14T02:35:53;8.20;99.90
22288;DHT22;11312;51.464;6.968;2023-12-14T02:38:19;8.10;99.90
22288;DHT22;11312;51.464;6.968;2023-12-14T02:40:44;8.10;99.90
22288;DHT22;11312;51.464;6.968;2023-12-14T02:43:10;8.20;99.90
22288;DHT22;11312;51.464;6.968;2023-12-14T02:45:36;8.20;99.90
22288;DHT22;11312;51.464;6.968;2023-12-14T02:48:01;8.20;99.90
22288;DHT22;11312;51.464;6.968;2023-12-14T02:50:27;8.10;99.90
22288;DHT22;11312;51.464;6.968;2023-12-14T02:52:52;8.10;99.90
22288;DHT22;11312;51.464;6.968;2023-12-14T02:55:18;8.20;99.90
22288;DHT22;11312;51.464;6.968;2023-12-14T02:57:43;8.20;99.90
22288;DHT22;11312;51.464;6.968;2023-12-14T03:00:10;8.10;99.90
22288;DHT22;11312;51.464;6.968;2023-12-14T03:02:36;8.10;99.90
22288;DHT22;11312;51.464;6.968;2023-12-14T03:05:02;8.00;99.90
22288;DHT22;11312;51.464;6.968;2023-12-14T03:07:28;8.00;99.90
22288;DHT22;11312;51.464;6.968;2023-12-14T03:09:53;8.00;99.90
22288;DHT22;11312;51.464;6.968;2023-12-14T03:12:19;7.90;99.90
22288;DHT22;11312;51.464;6.968;2023-12-14T03:14:45;7.90;99.90
22288;DHT22;11312;51.464;6.968;2023-12-14T03:17:10;7.90;99.90
22288;DHT22;11312;51.464;6.968;2023-12-14T03:19:42;7.90;99.90
22288;DHT22;11312;51.464;6.968;2023-12-14T03:22:08;8.00;99.90
22288;DHT22;11312;51.464;6.968;2023-12-14T03:24:35;7.80;99.90
22288;DHT22;11312;51.464;6.968;2023-12-14T03:27:01;7.80;99.90
22288;DHT22;11312;51.464;6.968;2023-12-14T03:29:28;7.80;99.90
22288;DHT22;11312;51.464;6.968;2023-12-14T03:31:55;7.80;99.90
22288;DHT22;11312;51.464;6.968;2023-12-14T03:34:21;7.80;99.90
22288;DHT22;11312;51.464;6.968;2023-12-14T03:36:46;7.80;99.90
22288;DHT22;11312;51.464;6.968;2023-12-14T03:39:12;7.80;99.90
22288;DHT22;11312;51.464;6.968;2023-12-14T03:41:37;7.80;99.90
22288;DHT22;11312;51.464;6.968;2023-12-14T03:44:03;7.60;99.90
22288;DHT22;11312;51.464;6.968;2023-12-14T03:46:29;7.70;99.90
22288;DHT22;11312;51.464;6.968;2023-12-14T03:48:55;7.70;99.90
22288;DHT22;11312;51.464;6.968;2023-12-14T03:51:21;7.70;99.90
22288;DHT22;11312;51.464;6.968;2023-12-14T03:53:47;7.70;99.90
22288;DHT22;11312;51.464;6.968;2023-12-14T03:56:12;7.70;99.90
22288;DHT22;11312;51.464;6.968;2023-12-14T03:58:38;7.80;99.90
22288;DHT22;11312;51.464;6.968;2023-12-14T04:01:04;7.80;99.90
22288;DHT22;11312;51.464;6.968;2023-12-14T04:03:29;7.80;99.90
22288;DHT22;11312;51.464;6.968;2023-12-14T04:05:55;7.70;99.90
22288;DHT22;11312;51.464;6.968;2023-12-14T04:08:21;7.80;99.90
22288;DHT22;11312;51.464;6.968;2023-12-14T04:10:46;7.70;99.90
22288;DHT22;11312;51.464;6.968;2023-12-14T04:13:12;7.70;99.90
22288;DHT22;11312;51.464;6.968;2023-12-14T04:15:38;7.70;99.90
22288;DHT22;11312;51.464;6.968;2023-12-14T04:18:03;7.60;99.90
22288;DHT22;11312;51.464;6.968;2023-12-14T04:20:29;7.60;99.90
22288;DHT22;11312;51.464;6.968;2023-12-14T04:22:55;7.60;99.90
22288;DHT22;11312;51.464;6.968;2023-12-14T04:25:20;7.70;99.90
22288;DHT22;11312;51.464;6.968;2023-12-14T04:27:46;7.60;99.90
22288;DHT22;11312;51.464;6.968;2023-12-14T04:30:12;7.60;99.90
22288;DHT22;11312;51.464;6.968;2023-12-14T04:32:38;7.60;99.90
22288;DHT22;11312;51.464;6.968;2023-12-14T04:35:04;7.70;99.90
22288;DHT22;11312;51.464;6.968;2023-12-14T04:37:30;7.70;99.90
22288;DHT22;11312;51.464;6.968;2023-12-14T04:39:57;7.60;99.90
22288;DHT22;11312;51.464;6.968;2023-12-14T04:42:23;7.50;99.90
22288;DHT22;11312;51.464;6.968;2023-12-14T04:44:48;7.50;99.90
22288;DHT22;11312;51.464;6.968;2023-12-14T04:47:14;7.50;99.90
22288;DHT22;11312;51.464;6.968;2023-12-14T04:49:40;7.50;99.90
22288;DHT22;11312;51.464;6.968;2023-12-14T04:52:05;7.50;99.90
22288;DHT22;11312;51.464;6.968;2023-12-14T04:54:31;7.50;99.90
22288;DHT22;11312;51.464;6.968;2023-12-14T04:56:57;7.50;99.90
22288;DHT22;11312;51.464;6.968;2023-12-14T04:59:23;7.50;99.90
22288;DHT22;11312;51.464;6.968;2023-12-14T05:01:48;7.50;99.90
22288;DHT22;11312;51.464;6.968;2023-12-14T05:04:14;7.60;99.90
22288;DHT22;11312;51.464;6.968;2023-12-14T05:06:39;7.40;99.90
22288;DHT22;11312;51.464;6.968;2023-12-14T05:09:05;7.50;99.90
22288;DHT22;11312;51.464;6.968;2023-12-14T05:11:32;7.50;99.90
22288;DHT22;11312;51.464;6.968;2023-12-14T05:13:58;7.60;99.90
22288;DHT22;11312;51.464;6.968;2023-12-14T05:16:24;7.50;99.90
22288;DHT22;11312;51.464;6.968;2023-12-14T05:18:53;7.50;99.90
22288;DHT22;11312;51.464;6.968;2023-12-14T05:21:19;7.50;99.90
22288;DHT22;11312;51.464;6.968;2023-12-14T05:23:45;7.50;99.90
22288;DHT22;11312;51.464;6.968;2023-12-14T05:26:10;7.50;99.90
22288;DHT22;11312;51.464;6.968;2023-12-14T05:28:36;7.50;99.90
22288;DHT22;11312;51.464;6.968;2023-12-14T05:31:02;7.50;99.90
22288;DHT22;11312;51.464;6.968;2023-12-14T05:33:28;7.50;99.90
22288;DHT22;11312;51.464;6.968;2023-12-14T05:35:54;7.40;99.90
22288;DHT22;11312;51.464;6.968;2023-12-14T05:38:20;7.40;99.90
22288;DHT22;11312;51.464;6.968;2023-12-14T05:40:46;7.40;99.90
22288;DHT22;11312;51.464;6.968;2023-12-14T05:43:11;7.40;99.90
22288;DHT22;11312;51.464;6.968;2023-12-14T05:45:37;7.40;99.90
22288;DHT22;11312;51.464;6.968;2023-12-14T05:48:02;7.40;99.90
22288;DHT22;11312;51.464;6.968;2023-12-14T05:50:31;7.40;99.90
22288;DHT22;11312;51.464;6.968;2023-12-14T05:52:56;7.40;99.90
22288;DHT22;11312;51.464;6.968;2023-12-14T05:55:22;7.20;99.90
22288;DHT22;11312;51.464;6.968;2023-12-14T05:57:48;7.20;99.90
22288;DHT22;11312;51.464;6.968;2023-12-14T06:00:14;7.30;99.90
22288;DHT22;11312;51.464;6.968;2023-12-14T06:02:40;7.30;99.90
22288;DHT22;11312;51.464;6.968;2023-12-14T06:05:07;7.40;99.90
22288;DHT22;11312;51.464;6.968;2023-12-14T06:07:33;7.40;99.90
22288;DHT22;11312;51.464;6.968;2023-12-14T06:09:58;7.40;99.90
22288;DHT22;11312;51.464;6.968;2023-12-14T06:12:24;7.40;99.90
22288;DHT22;11312;51.464;6.968;2023-12-14T06:14:50;7.40;99.90
22288;DHT22;11312;51.464;6.968;2023-12-14T06:17:16;7.40;99.90
22288;DHT22;11312;51.464;6.968;2023-12-14T06:19:42;7.30;99.90
22288;DHT22;11312;51.464;6.968;2023-12-14T06:22:07;7.30;99.90
22288;DHT22;11312;51.464;6.968;2023-12-14T06:24:33;7.40;99.90
22288;DHT22;11312;51.464;6.968;2023-12-14T06:26:59;7.40;99.90
22288;DHT22;11312;51.464;6.968;2023-12-14T06:29:24;7.40;99.90
22288;DHT22;11312;51.464;6.968;2023-12-14T06:31:50;7.40;99.90
22288;DHT22;11312;51.464;6.968;2023-12-14T06:34:16;7.20;99.90
22288;DHT22;11312;51.464;6.968;2023-12-14T06:36:45;7.30;99.90
22288;DHT22;11312;51.464;6.968;2023-12-14T06:39:11;7.20;99.90
22288;DHT22;11312;51.464;6.968;2023-12-14T06:41:37;7.30;99.90
22288;DHT22;11312;51.464;6.968;2023-12-14T06:44:03;7.20;99.90
22288;DHT22;11312;51.464;6.968;2023-12-14T06:46:29;7.10;99.90
22288;DHT22;11312;51.464;6.968;2023-12-14T06:48:55;7.10;99.90
22288;DHT22;11312;51.464;6.968;2023-12-14T06:51:21;7.20;99.90
22288;DHT22;11312;51.464;6.968;2023-12-14T06:53:47;7.10;99.90
22288;DHT22;11312;51.464;6.968;2023-12-14T06:56:14;7.20;99.90
22288;DHT22;11312;51.464;6.968;2023-12-14T06:58:41;7.00;99.90
22288;DHT22;11312;51.464;6.968;2023-12-14T07:01:07;7.10;99.90
22288;DHT22;11312;51.464;6.968;2023-12-14T07:03:33;7.20;99.90
22288;DHT22;11312;51.464;6.968;2023-12-14T07:05:59;7.10;99.90
22288;DHT22;11312;51.464;6.968;2023-12-14T07:08:25;7.00;99.90
22288;DHT22;11312;51.464;6.968;2023-12-14T07:10:50;7.10;99.90
22288;DHT22;11312;51.464;6.968;2023-12-14T07:13:16;7.10;99.90
22288;DHT22;11312;51.464;6.968;2023-12-14T07:15:42;7.20;99.90
22288;DHT22;11312;51.464;6.968;2023-12-14T07:18:07;7.10;99.90
22288;DHT22;11312;51.464;6.968;2023-12-14T07:20:33;7.20;99.90
22288;DHT22;11312;51.464;6.968;2023-12-14T07:22:59;7.20;99.90
22288;DHT22;11312;51.464;6.968;2023-12-14T07:25:24;7.10;99.90
22288;DHT22;11312;51.464;6.968;2023-12-14T07:27:50;7.10;99.90
22288;DHT22;11312;51.464;6.968;2023-12-14T07:30:16;7.00;99.90
22288;DHT22;11312;51.464;6.968;2023-12-14T07:32:42;7.10;99.90
22288;DHT22;11312;51.464;6.968;2023-12-14T07:35:08;7.10;99.90
22288;DHT22;11312;51.464;6.968;2023-12-14T07:37:34;7.10;99.90
22288;DHT22;11312;51.464;6.968;2023-12-14T07:39:59;7.10;99.90
22288;DHT22;11312;51.464;6.968;2023-12-14T07:42:25;7.00;99.90
22288;DHT22;11312;51.464;6.968;2023-12-14T07:44:51;6.90;99.90
22288;DHT22;11312;51.464;6.968;2023-12-14T07:47:17;7.00;99.90
22288;DHT22;11312;51.464;6.968;2023-12-14T07:49:42;6.90;99.90
22288;DHT22;11312;51.464;6.968;2023-12-14T07:52:08;7.00;99.90
22288;DHT22;11312;51.464;6.968;2023-12-14T07:54:35;6.90;99.90
22288;DHT22;11312;51.464;6.968;2023-12-14T07:57:01;6.90;99.90
22288;DHT22;11312;51.464;6.968;2023-12-14T07:59:26;6.90;99.90
22288;DHT22;11312;51.464;6.968;2023-12-14T08:01:52;6.90;99.90
22288;DHT22;11312;51.464;6.968;2023-12-14T08:04:18;6.90;99.90
22288;DHT22;11312;51.464;6.968;2023-12-14T08:06:43;7.00;99.90
22288;DHT22;11312;51.464;6.968;2023-12-14T08:09:09;7.00;99.90
22288;DHT22;11312;51.464;6.968;2023-12-14T08:11:35;6.90;99.90
22288;DHT22;11312;51.464;6.968;2023-12-14T08:14:01;6.90;99.90
22288;DHT22;11312;51.464;6.968;2023-12-14T08:16:28;6.90;99.90
22288;DHT22;11312;51.464;6.968;2023-12-14T08:18:54;6.90;99.90
22288;DHT22;11312;51.464;6.968;2023-12-14T08:21:19;6.80;99.90
22288;DHT22;11312;51.464;6.968;2023-12-14T08:23:45;6.80;99.90
22288;DHT22;11312;51.464;6.968;2023-12-14T08:26:10;6.90;99.90
22288;DHT22;11312;51.464;6.968;2023-12-14T08:28:39;6.90;99.90
22288;DHT22;11312;51.464;6.968;2023-12-14T08:31:04;6.90;99.90
22288;DHT22;11312;51.464;6.968;2023-12-14T08:33:30;7.00;99.90
22288;DHT22;11312;51.464;6.968;2023-12-14T08:35:57;6.90;99.90
22288;DHT22;11312;51.464;6.968;2023-12-14T08:38:23;7.60;99.90
22288;DHT22;11312;51.464;6.968;2023-12-14T08:40:49;9.50;99.90
22288;DHT22;11312;51.464;6.968;2023-12-14T08:43:14;11.30;99.90
22288;DHT22;11312;51.464;6.968;2023-12-14T08:45:40;12.20;99.90
22288;DHT22;11312;51.464;6.968;2023-12-14T08:48:06;12.80;99.90
22288;DHT22;11312;51.464;6.968;2023-12-14T08:50:32;13.70;99.90
22288;DHT22;11312;51.464;6.968;2023-12-14T08:52:57;14.00;99.90
22288;DHT22;11312;51.464;6.968;2023-12-14T08:55:27;14.20;99.90
22288;DHT22;11312;51.464;6.968;2023-12-14T08:57:53;13.50;99.90
22288;DHT22;11312;51.464;6.968;2023-12-14T09:00:19;12.40;99.90
22288;DHT22;11312;51.464;6.968;2023-12-14T09:02:45;11.00;99.90
22288;DHT22;11312;51.464;6.968;2023-12-14T09:05:14;9.70;99.90
22288;DHT22;11312;51.464;6.968;2023-12-14T09:07:42;9.30;99.90
22288;DHT22;11312;51.464;6.968;2023-12-14T09:10:08;8.90;99.90
22288;DHT22;11312;51.464;6.968;2023-12-14T09:12:34;8.30;99.90
22288;DHT22;11312;51.464;6.968;2023-12-14T09:15:07;8.00;99.90
22288;DHT22;11312;51.464;6.968;2023-12-14T09:17:32;7.90;99.90
22288;DHT22;11312;51.464;6.968;2023-12-14T09:20:02;7.70;99.90
22288;DHT22;11312;51.464;6.968;2023-12-14T09:22:30;7.60;99.90
22288;DHT22;11312;51.464;6.968;2023-12-14T09:24:56;7.70;99.90
22288;DHT22;11312;51.464;6.968;2023-12-14T09:27:22;7.40;99.90
22288;DHT22;11312;51.464;6.968;2023-12-14T09:29:47;7.60;99.90
22288;DHT22;11312;51.464;6.968;2023-12-14T09:32:13;7.50;99.90
22288;DHT22;11312;51.464;6.968;2023-12-14T09:34:38;7.50;99.90
22288;DHT22;11312;51.464;6.968;2023-12-14T09:37:05;7.30;99.90
22288;DHT22;11312;51.464;6.968;2023-12-14T09:39:30;7.30;99.90
22288;DHT22;11312;51.464;6.968;2023-12-14T09:42:03;7.40;99.90
22288;DHT22;11312;51.464;6.968;2023-12-14T09:44:33;7.40;99.90
22288;DHT22;11312;51.464;6.968;2023-12-14T09:47:00;7.10;99.90
22288;DHT22;11312;51.464;6.968;2023-12-14T09:49:32;7.20;99.90
22288;DHT22;11312;51.464;6.968;2023-12-14T09:51:58;7.00;99.90
22288;DHT22;11312;51.464;6.968;2023-12-14T09:54:25;7.10;99.90
22288;DHT22;11312;51.464;6.968;2023-12-14T09:56:51;7.20;99.90
22288;DHT22;11312;51.464;6.968;2023-12-14T09:59:18;7.20;99.90
22288;DHT22;11312;51.464;6.968;2023-12-14T10:01:44;7.20;99.90
22288;DHT22;11312;51.464;6.968;2023-12-14T10:04:15;7.20;99.90
22288;DHT22;11312;51.464;6.968;2023-12-14T10:06:42;7.20;99.90
22288;DHT22;11312;51.464;6.968;2023-12-14T10:09:08;7.20;99.90
22288;DHT22;11312;51.464;6.968;2023-12-14T10:11:45;7.20;99.90
22288;DHT22;11312;51.464;6.968;2023-12-14T10:14:24;7.20;99.90
22288;DHT22;11312;51.464;6.968;2023-12-14T10:16:51;7.20;99.90
22288;DHT22;11312;51.464;6.968;2023-12-14T10:19:18;7.20;99.90
22288;DHT22;11312;51.464;6.968;2023-12-14T10:21:46;7.30;99.90
22288;DHT22;11312;51.464;6.968;2023-12-14T10:24:12;7.30;99.90
22288;DHT22;11312;51.464;6.968;2023-12-14T10:26:38;7.30;99.90
22288;DHT22;11312;51.464;6.968;2023-12-14T10:29:04;7.10;99.90
22288;DHT22;11312;51.464;6.968;2023-12-14T10:31:32;7.10;99.90
22288;DHT22;11312;51.464;6.968;2023-12-14T10:34:06;7.20;99.90
22288;DHT22;11312;51.464;6.968;2023-12-14T10:36:32;7.20;99.90
22288;DHT22;11312;51.464;6.968;2023-12-14T10:39:00;7.20;99.90
22288;DHT22;11312;51.464;6.968;2023-12-14T10:41:26;7.10;99.90
22288;DHT22;11312;51.464;6.968;2023-12-14T10:43:54;7.20;99.90
22288;DHT22;11312;51.464;6.968;2023-12-14T10:46:20;7.30;99.90
22288;DHT22;11312;51.464;6.968;2023-12-14T10:48:50;7.30;99.90
22288;DHT22;11312;51.464;6.968;2023-12-14T10:51:22;7.30;99.90
22288;DHT22;11312;51.464;6.968;2023-12-14T10:53:49;7.30;99.90
22288;DHT22;11312;51.464;6.968;2023-12-14T10:56:16;7.10;99.90
22288;DHT22;11312;51.464;6.968;2023-12-14T10:58:46;7.10;99.90
22288;DHT22;11312;51.464;6.968;2023-12-14T11:01:16;7.20;99.90
22288;DHT22;11312;51.464;6.968;2023-12-14T11:03:43;7.20;99.90
22288;DHT22;11312;51.464;6.968;2023-12-14T11:06:30;7.10;99.90
22288;DHT22;11312;51.464;6.968;2023-12-14T11:08:59;7.20;99.90
22288;DHT22;11312;51.464;6.968;2023-12-14T11:11:28;7.20;99.90
22288;DHT22;11312;51.464;6.968;2023-12-14T11:13:54;7.20;99.90
22288;DHT22;11312;51.464;6.968;2023-12-14T11:16:21;7.10;99.90
22288;DHT22;11312;51.464;6.968;2023-12-14T11:18:47;7.20;99.90
22288;DHT22;11312;51.464;6.968;2023-12-14T11:21:18;7.20;99.90
22288;DHT22;11312;51.464;6.968;2023-12-14T11:23:50;7.20;99.90
22288;DHT22;11312;51.464;6.968;2023-12-14T11:26:21;7.20;99.90
22288;DHT22;11312;51.464;6.968;2023-12-14T11:28:48;7.20;99.90
22288;DHT22;11312;51.464;6.968;2023-12-14T11:31:14;7.20;99.90
22288;DHT22;11312;51.464;6.968;2023-12-14T11:33:40;7.20;99.90
22288;DHT22;11312;51.464;6.968;2023-12-14T11:36:06;7.20;99.90
22288;DHT22;11312;51.464;6.968;2023-12-14T11:38:32;7.10;99.90
22288;DHT22;11312;51.464;6.968;2023-12-14T11:41:00;7.20;99.90
22288;DHT22;11312;51.464;6.968;2023-12-14T11:43:26;7.20;99.90
22288;DHT22;11312;51.464;6.968;2023-12-14T11:45:52;7.20;99.90
22288;DHT22;11312;51.464;6.968;2023-12-14T11:48:18;7.20;99.90
22288;DHT22;11312;51.464;6.968;2023-12-14T11:50:45;7.10;99.90
22288;DHT22;11312;51.464;6.968;2023-12-14T11:53:12;7.00;99.90
22288;DHT22;11312;51.464;6.968;2023-12-14T11:55:40;7.00;99.90
22288;DHT22;11312;51.464;6.968;2023-12-14T11:58:06;7.10;99.90
22288;DHT22;11312;51.464;6.968;2023-12-14T12:00:35;7.10;99.90
22288;DHT22;11312;51.464;6.968;2023-12-14T12:03:18;7.10;99.90
22288;DHT22;11312;51.464;6.968;2023-12-14T12:05:50;7.00;99.90
22288;DHT22;11312;51.464;6.968;2023-12-14T12:08:19;7.00;99.90
22288;DHT22;11312;51.464;6.968;2023-12-14T12:10:46;7.00;99.90
22288;DHT22;11312;51.464;6.968;2023-12-14T12:13:20;7.00;99.90
22288;DHT22;11312;51.464;6.968;2023-12-14T12:15:46;7.00;99.90
22288;DHT22;11312;51.464;6.968;2023-12-14T12:18:14;6.90;99.90
22288;DHT22;11312;51.464;6.968;2023-12-14T12:20:40;7.00;99.90
22288;DHT22;11312;51.464;6.968;2023-12-14T12:23:06;6.90;99.90
22288;DHT22;11312;51.464;6.968;2023-12-14T12:25:32;7.00;99.90
22288;DHT22;11312;51.464;6.968;2023-12-14T12:27:59;7.00;99.90
22288;DHT22;11312;51.464;6.968;2023-12-14T12:30:26;7.00;99.90
22288;DHT22;11312;51.464;6.968;2023-12-14T12:32:51;6.90;99.90
22288;DHT22;11312;51.464;6.968;2023-12-14T12:35:20;7.00;99.90
22288;DHT22;11312;51.464;6.968;2023-12-14T12:37:46;7.00;99.90
22288;DHT22;11312;51.464;6.968;2023-12-14T12:40:12;6.90;99.90
22288;DHT22;11312;51.464;6.968;2023-12-14T12:42:40;7.00;99.90
22288;DHT22;11312;51.464;6.968;2023-12-14T12:45:06;7.00;99.90
22288;DHT22;11312;51.464;6.968;2023-12-14T12:47:32;7.10;99.90
22288;DHT22;11312;51.464;6.968;2023-12-14T12:49:58;6.80;99.90
22288;DHT22;11312;51.464;6.968;2023-12-14T12:52:23;6.90;99.90
22288;DHT22;11312;51.464;6.968;2023-12-14T12:54:49;7.00;99.90
22288;DHT22;11312;51.464;6.968;2023-12-14T12:57:15;6.90;99.90
22288;DHT22;11312;51.464;6.968;2023-12-14T12:59:40;6.90;99.90
22288;DHT22;11312;51.464;6.968;2023-12-14T13:02:06;6.90;99.90
22288;DHT22;11312;51.464;6.968;2023-12-14T13:04:32;6.90;99.90
22288;DHT22;11312;51.464;6.968;2023-12-14T13:06:58;6.80;99.90
22288;DHT22;11312;51.464;6.968;2023-12-14T13:09:24;6.80;99.90
22288;DHT22;11312;51.464;6.968;2023-12-14T13:11:50;6.90;99.90
22288;DHT22;11312;51.464;6.968;2023-12-14T13:14:16;6.90;99.90
22288;DHT22;11312;51.464;6.968;2023-12-14T13:16:43;6.80;99.90
22288;DHT22;11312;51.464;6.968;2023-12-14T13:19:09;6.80;99.90
22288;DHT22;11312;51.464;6.968;2023-12-14T13:21:35;6.90;99.90
22288;DHT22;11312;51.464;6.968;2023-12-14T13:24:01;6.90;99.90
22288;DHT22;11312;51.464;6.968;2023-12-14T13:26:27;6.70;99.90
22288;DHT22;11312;51.464;6.968;2023-12-14T13:28:52;6.70;99.90
22288;DHT22;11312;51.464;6.968;2023-12-14T13:31:19;6.60;99.90
22288;DHT22;11312;51.464;6.968;2023-12-14T13:33:48;6.60;99.90
22288;DHT22;11312;51.464;6.968;2023-12-14T13:36:14;6.60;99.90
22288;DHT22;11312;51.464;6.968;2023-12-14T13:38:41;6.70;99.90
22288;DHT22;11312;51.464;6.968;2023-12-14T13:41:07;6.70;99.90
22288;DHT22;11312;51.464;6.968;2023-12-14T13:43:33;6.50;99.90
22288;DHT22;11312;51.464;6.968;2023-12-14T13:45:58;6.60;99.90
22288;DHT22;11312;51.464;6.968;2023-12-14T13:48:25;6.70;99.90
22288;DHT22;11312;51.464;6.968;2023-12-14T13:50:51;6.70;99.90
22288;DHT22;11312;51.464;6.968;2023-12-14T13:53:17;6.70;99.90
22288;DHT22;11312;51.464;6.968;2023-12-14T13:55:43;6.80;99.90
22288;DHT22;11312;51.464;6.968;2023-12-14T13:58:08;6.80;99.90
22288;DHT22;11312;51.464;6.968;2023-12-14T14:00:34;6.80;99.90
22288;DHT22;11312;51.464;6.968;2023-12-14T14:03:00;6.70;99.90
22288;DHT22;11312;51.464;6.968;2023-12-14T14:05:27;6.70;99.90
22288;DHT22;11312;51.464;6.968;2023-12-14T14:07:52;6.70;99.90
22288;DHT22;11312;51.464;6.968;2023-12-14T14:10:19;6.70;99.90
22288;DHT22;11312;51.464;6.968;2023-12-14T14:12:45;6.70;99.90
22288;DHT22;11312;51.464;6.968;2023-12-14T14:15:11;6.70;99.90
22288;DHT22;11312;51.464;6.968;2023-12-14T14:17:37;6.70;99.90
22288;DHT22;11312;51.464;6.968;2023-12-14T14:20:03;6.70;99.90
22288;DHT22;11312;51.464;6.968;2023-12-14T14:22:30;6.70;99.90
22288;DHT22;11312;51.464;6.968;2023-12-14T14:24:56;6.70;99.90
22288;DHT22;11312;51.464;6.968;2023-12-14T14:27:22;6.50;99.90
22288;DHT22;11312;51.464;6.968;2023-12-14T14:29:49;5.70;99.90
22288;DHT22;11312;51.464;6.968;2023-12-14T14:32:15;6.40;99.90
22288;DHT22;11312;51.464;6.968;2023-12-14T14:34:41;6.40;99.90
22288;DHT22;11312;51.464;6.968;2023-12-14T14:37:08;6.40;99.90
22288;DHT22;11312;51.464;6.968;2023-12-14T14:39:33;6.50;99.90
22288;DHT22;11312;51.464;6.968;2023-12-14T14:41:59;6.30;99.90
22288;DHT22;11312;51.464;6.968;2023-12-14T14:44:25;6.40;99.90
22288;DHT22;11312;51.464;6.968;2023-12-14T14:46:51;6.50;99.90
22288;DHT22;11312;51.464;6.968;2023-12-14T14:49:17;6.50;99.90
22288;DHT22;11312;51.464;6.968;2023-12-14T14:51:43;6.50;99.90
22288;DHT22;11312;51.464;6.968;2023-12-14T14:54:08;6.50;99.90
22288;DHT22;11312;51.464;6.968;2023-12-14T14:56:34;6.50;99.90
22288;DHT22;11312;51.464;6.968;2023-12-14T14:59:00;6.50;99.90
22288;DHT22;11312;51.464;6.968;2023-12-14T15:01:26;6.50;99.90
22288;DHT22;11312;51.464;6.968;2023-12-14T15:03:51;6.40;99.90
22288;DHT22;11312;51.464;6.968;2023-12-14T15:06:17;6.50;99.90
22288;DHT22;11312;51.464;6.968;2023-12-14T15:08:42;6.50;99.90
22288;DHT22;11312;51.464;6.968;2023-12-14T15:11:08;6.50;99.90
22288;DHT22;11312;51.464;6.968;2023-12-14T15:13:36;6.50;99.90
22288;DHT22;11312;51.464;6.968;2023-12-14T15:16:02;6.50;99.90
22288;DHT22;11312;51.464;6.968;2023-12-14T15:18:27;6.50;99.90
22288;DHT22;11312;51.464;6.968;2023-12-14T15:20:53;6.50;99.90
22288;DHT22;11312;51.464;6.968;2023-12-14T15:23:19;6.40;99.90
22288;DHT22;11312;51.464;6.968;2023-12-14T15:25:45;6.30;99.90
22288;DHT22;11312;51.464;6.968;2023-12-14T15:28:10;6.40;99.90
22288;DHT22;11312;51.464;6.968;2023-12-14T15:30:36;6.50;99.90
22288;DHT22;11312;51.464;6.968;2023-12-14T15:33:02;8.20;99.90
22288;DHT22;11312;51.464;6.968;2023-12-14T15:35:28;8.40;99.90
22288;DHT22;11312;51.464;6.968;2023-12-14T15:37:53;8.00;99.90